Time;durP1;ratioP1;P1;durP2;ratioP2;P2;SDS_P1;SDS_P2;PMS_P1;PMS_P2;Temp;Humidity;BMP_temperature;BMP_pressure;BME280_temperature;BME280_humidity;BME280_pressure;Samples;Min_cycle;Max_cycle;Signal;HPM_P1;HPM_P2
2023/08/23 00:00:32;;;;;;;6.68;4.07;;;15.60;99.90;;;;;;4958629;28;20034;-77
2023/08/23 00:02:58;;;;;;;5.97;4.13;;;15.60;99.90;;;;;;4999899;28;20046;-77
2023/08/23 00:05:24;;;;;;;6.88;4.20;;;15.50;99.90;;;;;;5013697;28;20038;-77
2023/08/23 00:07:49;;;;;;;5.10;3.85;;;15.50;99.90;;;;;;4974907;28;20125;-77
2023/08/23 00:10:16;;;;;;;4.43;3.53;;;15.50;99.90;;;;;;4982437;28;20455;-77
2023/08/23 00:12:42;;;;;;;4.30;3.22;;;15.50;99.90;;;;;;5011983;28;20372;-77
2023/08/23 00:15:08;;;;;;;3.45;2.90;;;15.50;99.90;;;;;;4999321;28;20037;-77
2023/08/23 00:17:34;;;;;;;3.35;2.92;;;15.50;99.90;;;;;;4955232;28;20041;-77
2023/08/23 00:20:00;;;;;;;6.30;3.15;;;15.40;99.90;;;;;;4988206;28;20128;-77
2023/08/23 00:22:25;;;;;;;5.75;3.35;;;15.40;99.90;;;;;;5038302;28;20172;-77
2023/08/23 00:24:51;;;;;;;4.43;3.90;;;15.40;99.90;;;;;;4972730;28;20476;-76
2023/08/23 00:27:17;;;;;;;6.43;3.67;;;15.30;99.90;;;;;;5017762;28;20061;-76
2023/08/23 00:29:42;;;;;;;3.90;3.35;;;15.30;99.90;;;;;;5011115;28;20052;-77
2023/08/23 00:32:08;;;;;;;4.03;3.63;;;15.30;99.90;;;;;;5016885;28;20054;-76
2023/08/23 00:34:34;;;;;;;5.20;3.38;;;15.30;99.90;;;;;;5034106;28;20858;-76
2023/08/23 00:36:59;;;;;;;5.00;4.03;;;15.20;99.90;;;;;;4989265;28;20124;-77
2023/08/23 00:39:25;;;;;;;9.77;4.82;;;15.20;99.90;;;;;;4972080;28;20076;-77
2023/08/23 00:41:51;;;;;;;8.43;5.25;;;15.30;99.90;;;;;;4996256;28;20492;-77
2023/08/23 00:44:17;;;;;;;6.20;4.43;;;15.30;99.90;;;;;;5004829;28;20046;-77
2023/08/23 00:46:43;;;;;;;7.45;4.90;;;15.30;99.90;;;;;;4988139;28;20041;-77
2023/08/23 00:49:09;;;;;;;7.25;4.70;;;15.30;99.90;;;;;;4987182;28;20132;-77
2023/08/23 00:51:35;;;;;;;8.02;4.20;;;15.30;99.90;;;;;;4988891;28;20126;-77
2023/08/23 00:54:01;;;;;;;8.55;5.00;;;15.30;99.90;;;;;;4974360;28;20483;-77
2023/08/23 00:56:28;;;;;;;7.20;4.88;;;15.30;99.90;;;;;;4992118;28;20044;-77
2023/08/23 00:58:54;;;;;;;6.63;4.03;;;15.30;99.90;;;;;;4970616;28;20078;-78
2023/08/23 01:01:20;;;;;;;6.38;3.40;;;15.20;99.90;;;;;;4988384;28;20069;-77
2023/08/23 01:03:45;;;;;;;5.15;3.22;;;15.20;99.90;;;;;;5011368;28;20041;-77
2023/08/23 01:06:26;;;;;;;6.13;3.70;;;15.20;99.90;;;;;;4971480;28;20050;-77
2023/08/23 01:08:55;;;;;;;6.95;4.38;;;15.10;99.90;;;;;;5021292;28;20061;-77
2023/08/23 01:11:33;;;;;;;6.88;4.30;;;15.10;99.90;;;;;;5025417;28;20046;-77
2023/08/23 01:14:22;;;;;;;8.98;4.85;;;15.00;99.90;;;;;;5016268;28;20033;-77
2023/08/23 01:16:49;;;;;;;9.70;4.25;;;14.90;99.90;;;;;;5000109;28;20038;-77
2023/08/23 01:19:33;;;;;;;9.35;4.25;;;14.90;99.90;;;;;;5022733;28;20075;-77
2023/08/23 01:22:02;;;;;;;5.60;4.60;;;14.90;99.90;;;;;;5035924;28;20041;-77
2023/08/23 01:24:28;;;;;;;7.75;4.43;;;14.90;99.90;;;;;;4990125;28;20045;-77
2023/08/23 01:26:54;;;;;;;7.05;4.38;;;14.90;99.90;;;;;;5016287;28;20039;-77
2023/08/23 01:29:19;;;;;;;5.93;4.90;;;14.90;99.90;;;;;;5018372;28;20492;-77
2023/08/23 01:31:49;;;;;;;7.15;4.55;;;15.00;99.90;;;;;;5002878;28;20071;-77
2023/08/23 01:34:25;;;;;;;7.93;4.88;;;15.00;99.90;;;;;;5010004;28;20491;-78
2023/08/23 01:36:53;;;;;;;5.88;4.72;;;15.00;99.90;;;;;;4994166;28;20051;-78
2023/08/23 01:39:23;;;;;;;7.57;4.95;;;15.00;99.90;;;;;;5029231;28;20037;-79
2023/08/23 01:41:50;;;;;;;9.07;5.40;;;15.00;99.90;;;;;;4993844;28;20511;-77
2023/08/23 01:44:16;;;;;;;8.77;5.43;;;14.90;99.90;;;;;;5021261;28;20044;-77
2023/08/23 01:46:41;;;;;;;7.00;4.85;;;14.90;99.90;;;;;;5002415;28;20034;-77
2023/08/23 01:49:07;;;;;;;6.90;4.85;;;14.80;99.90;;;;;;4978629;28;20054;-77
2023/08/23 01:51:33;;;;;;;7.40;4.80;;;14.80;99.90;;;;;;5030064;28;20042;-77
2023/08/23 01:53:59;;;;;;;5.93;4.90;;;14.80;99.90;;;;;;5003147;28;20035;-77
2023/08/23 01:56:24;;;;;;;6.65;4.80;;;14.70;99.90;;;;;;5016716;28;20065;-78
2023/08/23 01:58:50;;;;;;;8.50;4.80;;;14.70;99.90;;;;;;5001496;28;21507;-78
2023/08/23 02:01:16;;;;;;;5.78;5.00;;;14.60;99.90;;;;;;5008388;28;20065;-78
2023/08/23 02:03:41;;;;;;;7.78;4.40;;;14.60;99.90;;;;;;5010158;28;20045;-78
2023/08/23 02:06:07;;;;;;;6.57;4.10;;;14.50;99.90;;;;;;4995109;28;20045;-77
2023/08/23 02:08:34;;;;;;;5.90;4.70;;;14.50;99.90;;;;;;4977353;28;20041;-78
2023/08/23 02:11:00;;;;;;;6.32;4.57;;;14.50;99.90;;;;;;5020903;28;20033;-78
2023/08/23 02:13:26;;;;;;;6.38;4.20;;;14.50;99.90;;;;;;5045331;28;20213;-78
2023/08/23 02:15:52;;;;;;;6.75;4.75;;;14.50;99.90;;;;;;5023558;28;20041;-79
2023/08/23 02:18:19;;;;;;;4.97;4.10;;;14.50;99.90;;;;;;4977360;28;20044;-79
2023/08/23 02:20:44;;;;;;;6.35;4.43;;;14.60;99.90;;;;;;5027008;28;20096;-79
2023/08/23 02:23:10;;;;;;;4.88;4.38;;;14.60;99.90;;;;;;5026792;28;20454;-79
2023/08/23 02:25:36;;;;;;;5.25;4.38;;;14.50;99.90;;;;;;5012016;28;20398;-79
2023/08/23 02:28:01;;;;;;;4.80;4.13;;;14.50;99.90;;;;;;4977478;28;20045;-77
2023/08/23 02:30:27;;;;;;;6.03;4.18;;;14.50;99.90;;;;;;5025621;28;20399;-77
2023/08/23 02:32:53;;;;;;;4.60;4.20;;;14.50;99.90;;;;;;4992410;28;20080;-77
2023/08/23 02:35:18;;;;;;;7.00;4.57;;;14.50;99.90;;;;;;5011337;28;20038;-77
2023/08/23 02:37:44;;;;;;;7.40;4.97;;;14.50;99.90;;;;;;5018225;28;20125;-77
2023/08/23 02:40:10;;;;;;;8.82;5.68;;;14.50;99.90;;;;;;5016407;28;20046;-77
2023/08/23 02:42:36;;;;;;;7.18;5.68;;;14.40;99.90;;;;;;5027255;28;20091;-76
2023/08/23 02:45:02;;;;;;;7.00;4.88;;;14.40;99.90;;;;;;5010657;28;20045;-77
2023/08/23 02:47:28;;;;;;;6.43;5.05;;;14.40;99.90;;;;;;4992893;28;20045;-76
2023/08/23 02:49:53;;;;;;;7.95;6.00;;;14.40;99.90;;;;;;5004108;28;20511;-77
2023/08/23 02:52:19;;;;;;;13.63;5.97;;;14.40;99.90;;;;;;4976172;28;20037;-77
2023/08/23 02:54:45;;;;;;;10.60;7.20;;;14.40;99.90;;;;;;5004848;28;20030;-76
2023/08/23 02:57:10;;;;;;;11.82;7.55;;;14.40;99.90;;;;;;4959155;28;20539;-76
2023/08/23 02:59:36;;;;;;;10.45;8.50;;;14.40;99.90;;;;;;5006407;28;21348;-77
2023/08/23 03:02:02;;;;;;;15.32;9.18;;;14.50;99.90;;;;;;5002613;28;20478;-76
2023/08/23 03:04:28;;;;;;;11.63;8.45;;;14.50;99.90;;;;;;4999574;28;20045;-76
2023/08/23 03:06:54;;;;;;;11.38;7.75;;;14.50;99.90;;;;;;4990473;28;20077;-77
2023/08/23 03:09:19;;;;;;;11.15;7.90;;;14.50;99.90;;;;;;4974251;28;20562;-77
2023/08/23 03:11:45;;;;;;;15.95;9.20;;;14.50;99.90;;;;;;5001418;28;20034;-78
2023/08/23 03:14:11;;;;;;;13.18;9.48;;;14.50;99.90;;;;;;4989826;28;20037;-77
2023/08/23 03:16:36;;;;;;;16.75;10.05;;;14.50;99.90;;;;;;5008405;28;20124;-77
2023/08/23 03:19:02;;;;;;;15.52;9.55;;;14.50;99.90;;;;;;4966022;28;20399;-77
2023/08/23 03:21:28;;;;;;;13.05;9.57;;;14.50;99.90;;;;;;4975738;28;20041;-77
2023/08/23 03:23:53;;;;;;;12.43;8.98;;;14.50;99.90;;;;;;4994545;28;20194;-77
2023/08/23 03:26:19;;;;;;;13.50;9.30;;;14.50;99.90;;;;;;5008246;28;20041;-78
2023/08/23 03:28:45;;;;;;;12.73;9.25;;;14.50;99.90;;;;;;5018353;28;20038;-78
2023/08/23 03:31:10;;;;;;;15.98;9.63;;;14.50;99.90;;;;;;5014585;28;20551;-77
2023/08/23 03:33:36;;;;;;;13.82;9.13;;;14.60;99.90;;;;;;5024067;28;20057;-78
2023/08/23 03:36:02;;;;;;;11.82;9.20;;;14.60;99.90;;;;;;4990723;28;20034;-77
2023/08/23 03:38:28;;;;;;;11.73;8.82;;;14.60;99.90;;;;;;5022660;28;20128;-78
2023/08/23 03:40:54;;;;;;;13.23;10.07;;;14.60;99.90;;;;;;5035248;28;20144;-77
2023/08/23 03:43:19;;;;;;;14.18;10.13;;;14.60;99.90;;;;;;4986996;28;20038;-76
2023/08/23 03:45:49;;;;;;;14.43;10.00;;;14.50;99.90;;;;;;5024655;28;20483;-76
2023/08/23 03:48:16;;;;;;;12.75;9.88;;;14.50;99.90;;;;;;5008340;28;20530;-76
2023/08/23 03:50:42;;;;;;;12.38;8.75;;;14.50;99.90;;;;;;5027405;28;20034;-77
2023/08/23 03:53:08;;;;;;;12.50;9.15;;;14.50;99.90;;;;;;4988900;28;20045;-77
2023/08/23 03:55:36;;;;;;;16.98;11.23;;;14.50;99.90;;;;;;5005546;28;20041;-78
2023/08/23 03:58:05;;;;;;;17.13;11.50;;;14.60;99.90;;;;;;4972879;28;20042;-78
2023/08/23 04:00:30;;;;;;;19.35;12.57;;;14.50;99.90;;;;;;4968224;28;20113;-79
2023/08/23 04:02:56;;;;;;;31.60;15.00;;;14.60;99.90;;;;;;5029918;28;20507;-78
2023/08/23 04:05:22;;;;;;;27.73;13.15;;;14.70;99.90;;;;;;5006861;28;20463;-77
2023/08/23 04:07:47;;;;;;;95.63;19.52;;;14.70;99.90;;;;;;5009578;28;20062;-77
2023/08/23 04:10:13;;;;;;;63.78;16.00;;;14.70;99.90;;;;;;4957921;28;20184;-78
2023/08/23 04:12:39;;;;;;;23.48;12.52;;;14.70;99.90;;;;;;4981012;28;20504;-78
2023/08/23 04:15:05;;;;;;;20.52;13.43;;;14.70;99.90;;;;;;4972782;28;20479;-78
2023/08/23 04:17:31;;;;;;;25.48;13.57;;;14.70;99.90;;;;;;5004518;28;20040;-78
2023/08/23 04:19:56;;;;;;;21.17;13.40;;;14.70;99.90;;;;;;4996187;28;20038;-78
2023/08/23 04:22:22;;;;;;;20.02;14.38;;;14.70;99.90;;;;;;4974156;28;20112;-78
2023/08/23 04:24:49;;;;;;;28.02;15.10;;;14.70;99.90;;;;;;4971777;28;20782;-78
2023/08/23 04:27:14;;;;;;;28.20;17.40;;;14.70;99.90;;;;;;5003582;28;20065;-78
2023/08/23 04:29:40;;;;;;;29.70;16.83;;;14.70;99.90;;;;;;5012415;28;20999;-79
2023/08/23 04:32:09;;;;;;;22.58;15.13;;;14.80;99.90;;;;;;5014082;28;20042;-78
2023/08/23 04:34:35;;;;;;;25.50;14.85;;;14.80;99.90;;;;;;4972478;28;20042;-79
2023/08/23 04:37:01;;;;;;;25.60;14.52;;;15.20;99.90;;;;;;4987648;28;20041;-78
2023/08/23 04:39:27;;;;;;;41.42;17.13;;;14.80;99.90;;;;;;4998338;28;20048;-79
2023/08/23 04:41:53;;;;;;;25.15;14.95;;;14.80;99.90;;;;;;4957620;28;20038;-78
2023/08/23 04:44:18;;;;;;;32.55;16.55;;;14.80;99.90;;;;;;5012876;28;20049;-78
2023/08/23 04:46:44;;;;;;;29.17;16.50;;;14.90;99.90;;;;;;5005720;28;20526;-79
2023/08/23 04:49:10;;;;;;;38.08;18.13;;;14.90;99.90;;;;;;4989999;28;20062;-79
2023/08/23 04:51:36;;;;;;;38.55;19.52;;;14.90;99.90;;;;;;4996718;28;20046;-79
2023/08/23 04:54:01;;;;;;;27.00;17.15;;;15.00;99.90;;;;;;5009190;28;20034;-79
2023/08/23 04:56:27;;;;;;;23.13;16.02;;;15.00;99.90;;;;;;5022538;28;20073;-78
2023/08/23 04:58:53;;;;;;;25.00;18.10;;;15.10;99.90;;;;;;4963163;28;20093;-78
2023/08/23 05:01:19;;;;;;;22.60;15.82;;;15.10;99.90;;;;;;5000512;28;20053;-79
2023/08/23 05:03:47;;;;;;;23.13;16.38;;;15.10;99.90;;;;;;5006730;28;20038;-78
2023/08/23 05:06:13;;;;;;;24.13;16.85;;;15.20;99.90;;;;;;5021477;28;20125;-78
2023/08/23 05:08:40;;;;;;;23.95;17.20;;;15.20;99.90;;;;;;4969824;28;20125;-78
2023/08/23 05:11:06;;;;;;;23.58;16.30;;;15.20;99.90;;;;;;4989102;28;20096;-78
2023/08/23 05:13:32;;;;;;;25.08;16.35;;;15.20;99.90;;;;;;5004406;28;20521;-79
2023/08/23 05:15:57;;;;;;;26.35;16.75;;;15.30;99.90;;;;;;5021700;28;20562;-78
2023/08/23 05:18:24;;;;;;;27.33;16.95;;;15.30;99.90;;;;;;4990486;28;20480;-78
2023/08/23 05:20:57;;;;;;;29.80;17.80;;;15.30;99.90;;;;;;4988402;28;20048;-78
2023/08/23 05:23:23;;;;;;;31.15;18.80;;;15.30;99.90;;;;;;5026568;28;20184;-79
2023/08/23 05:25:51;;;;;;;32.53;18.05;;;15.30;99.90;;;;;;5003672;28;20034;-78
2023/08/23 05:28:21;;;;;;;33.63;19.40;;;15.40;99.90;;;;;;5004830;28;20049;-78
2023/08/23 05:30:48;;;;;;;33.95;19.60;;;15.40;99.90;;;;;;5021817;28;20042;-78
2023/08/23 05:33:13;;;;;;;30.98;18.90;;;15.50;99.90;;;;;;5001230;28;20096;-78
2023/08/23 05:35:40;;;;;;;33.33;20.17;;;15.50;99.90;;;;;;4990251;28;20034;-78
2023/08/23 05:38:07;;;;;;;33.53;21.00;;;15.50;99.90;;;;;;5037670;28;20115;-78
2023/08/23 05:40:32;;;;;;;37.45;20.42;;;15.60;99.90;;;;;;4996266;28;20407;-78
2023/08/23 05:42:58;;;;;;;36.10;20.67;;;15.60;99.90;;;;;;4962304;28;20038;-77
2023/08/23 05:45:26;;;;;;;36.80;22.33;;;15.70;99.90;;;;;;4996415;28;21495;-78
2023/08/23 05:47:56;;;;;;;44.53;22.95;;;15.70;99.90;;;;;;4995477;28;20054;-78
2023/08/23 05:50:22;;;;;;;38.75;22.13;;;15.80;99.90;;;;;;4973319;28;20045;-77
2023/08/23 05:52:48;;;;;;;43.40;24.02;;;15.80;99.90;;;;;;5000608;28;20080;-78
2023/08/23 05:55:14;;;;;;;39.15;22.80;;;15.90;99.90;;;;;;5019001;28;20111;-77
2023/08/23 05:57:39;;;;;;;42.28;22.88;;;15.90;99.90;;;;;;5004109;28;20475;-77
2023/08/23 06:00:06;;;;;;;42.58;21.95;;;16.00;99.90;;;;;;4986402;28;20041;-77
2023/08/23 06:02:32;;;;;;;43.58;23.27;;;16.00;99.90;;;;;;4989223;28;20057;-77
2023/08/23 06:04:58;;;;;;;48.22;22.35;;;16.10;99.90;;;;;;5020507;28;20189;-78
2023/08/23 06:07:24;;;;;;;37.70;19.65;;;16.10;99.90;;;;;;4987516;28;20123;-77
2023/08/23 06:09:50;;;;;;;33.78;20.60;;;16.20;99.90;;;;;;5000760;28;20475;-77
2023/08/23 06:12:15;;;;;;;33.55;19.65;;;16.20;99.90;;;;;;4987933;28;20049;-78
2023/08/23 06:14:41;;;;;;;40.70;19.38;;;16.30;99.90;;;;;;5011841;28;20038;-78
2023/08/23 06:17:07;;;;;;;36.55;20.35;;;16.30;99.90;;;;;;5002103;28;20034;-78
2023/08/23 06:19:33;;;;;;;36.70;18.45;;;16.30;99.90;;;;;;4996719;28;20038;-78
2023/08/23 06:21:58;;;;;;;29.30;17.77;;;16.30;99.90;;;;;;4992108;28;20120;-78
2023/08/23 06:24:24;;;;;;;34.65;17.48;;;16.30;99.90;;;;;;5008292;28;20048;-79
2023/08/23 06:26:50;;;;;;;31.42;18.35;;;16.30;99.90;;;;;;5022369;28;20513;-78
2023/08/23 06:29:17;;;;;;;36.55;18.58;;;16.30;99.90;;;;;;4976691;28;20037;-78
2023/08/23 06:31:43;;;;;;;33.58;18.50;;;16.40;99.90;;;;;;4988632;28;20491;-78
2023/08/23 06:34:08;;;;;;;33.50;19.05;;;16.40;99.90;;;;;;5008682;28;20041;-78
2023/08/23 06:36:34;;;;;;;30.63;16.42;;;16.50;99.90;;;;;;4992826;28;20048;-78
2023/08/23 06:39:00;;;;;;;33.85;17.77;;;16.50;99.90;;;;;;4967558;28;20113;-78
2023/08/23 06:41:26;;;;;;;34.63;18.27;;;16.60;99.90;;;;;;5011837;28;20504;-78
2023/08/23 06:44:01;;;;;;;33.88;18.02;;;16.60;99.90;;;;;;4973595;28;20428;-79
2023/08/23 06:46:28;;;;;;;31.98;17.50;;;16.70;99.90;;;;;;4992418;28;20639;-78
2023/08/23 06:48:55;;;;;;;33.53;18.13;;;16.80;99.90;;;;;;5025637;28;20050;-77
2023/08/23 06:51:22;;;;;;;31.50;18.95;;;16.90;99.90;;;;;;5022681;28;20042;-77
2023/08/23 06:53:50;;;;;;;31.42;17.92;;;17.00;99.90;;;;;;4991636;28;20046;-77
2023/08/23 06:56:15;;;;;;;29.95;17.70;;;17.10;99.90;;;;;;5036760;28;20034;-77
2023/08/23 06:58:41;;;;;;;31.10;18.67;;;17.20;99.90;;;;;;5005910;28;20048;-77
2023/08/23 07:01:13;;;;;;;31.25;17.88;;;17.30;99.90;;;;;;4992750;28;20068;-77
2023/08/23 07:03:43;;;;;;;;;;;17.30;99.90;;;;;;5004974;28;20038;-76
2023/08/23 07:06:13;;;;;;;30.80;17.95;;;17.50;99.90;;;;;;5037358;28;19918;-76
2023/08/23 07:08:43;;;;;;;23.67;15.95;;;17.60;99.90;;;;;;5005845;28;20046;-75
2023/08/23 07:11:09;;;;;;;26.10;13.07;;;17.80;99.90;;;;;;5001648;28;20538;-75
2023/08/23 07:13:38;;;;;;;21.38;13.25;;;17.90;99.90;;;;;;5009020;28;20411;-74
2023/08/23 07:16:04;;;;;;;21.15;13.27;;;18.00;99.90;;;;;;5042413;28;20057;-74
2023/08/23 07:18:30;;;;;;;19.85;11.90;;;18.10;99.90;;;;;;4995440;28;20415;-75
2023/08/23 07:20:55;;;;;;;23.27;13.30;;;18.10;99.90;;;;;;5004757;28;20084;-75
2023/08/23 07:23:21;;;;;;;20.08;12.10;;;18.20;99.90;;;;;;5013932;28;20052;-74
2023/08/23 07:25:47;;;;;;;20.70;12.68;;;18.20;99.90;;;;;;4986770;28;20091;-74
2023/08/23 07:28:13;;;;;;;17.77;11.32;;;18.30;99.90;;;;;;4990611;28;20132;-73
2023/08/23 07:30:43;;;;;;;19.17;11.32;;;18.50;99.90;;;;;;4963894;28;20042;-74
2023/08/23 07:33:09;;;;;;;17.77;10.63;;;18.60;99.90;;;;;;4986107;28;20161;-74
2023/08/23 07:35:34;;;;;;;16.90;11.20;;;18.90;99.90;;;;;;4987274;28;20045;-74
2023/08/23 07:38:00;;;;;;;14.27;9.85;;;19.20;99.90;;;;;;5014244;28;20041;-74
2023/08/23 07:40:26;;;;;;;17.98;10.50;;;19.40;99.90;;;;;;4990064;28;20385;-72
2023/08/23 07:42:52;;;;;;;12.40;8.43;;;19.50;99.90;;;;;;5026795;28;20120;-73
2023/08/23 07:45:20;;;;;;;13.30;7.90;;;19.50;99.90;;;;;;5012345;28;20367;-72
2023/08/23 07:47:46;;;;;;;11.65;8.30;;;19.60;99.90;;;;;;5012321;28;20050;-73
2023/08/23 07:50:12;;;;;;;13.93;7.63;;;19.80;99.90;;;;;;5025089;28;20125;-72
2023/08/23 07:52:38;;;;;;;13.00;8.43;;;19.90;99.90;;;;;;5026247;28;20132;-73
2023/08/23 07:55:05;;;;;;;13.27;9.15;;;19.90;99.90;;;;;;5037729;28;20034;-73
2023/08/23 07:57:30;;;;;;;11.65;8.02;;;19.80;99.90;;;;;;5002187;28;20038;-73
2023/08/23 07:59:56;;;;;;;12.60;8.82;;;19.80;99.90;;;;;;4995958;28;20063;-73
2023/08/23 08:02:22;;;;;;;12.30;8.15;;;19.80;99.90;;;;;;4986540;28;20049;-73
2023/08/23 08:04:48;;;;;;;12.77;8.38;;;19.90;99.90;;;;;;4993922;28;20042;-73
2023/08/23 08:07:14;;;;;;;10.95;6.70;;;20.00;99.90;;;;;;4978935;28;20376;-74
2023/08/23 08:09:39;;;;;;;12.30;7.35;;;20.20;99.90;;;;;;5036626;28;20384;-73
2023/08/23 08:12:05;;;;;;;12.25;8.10;;;20.20;99.90;;;;;;5017937;28;20034;-74
2023/08/23 08:14:31;;;;;;;12.43;7.45;;;20.40;99.90;;;;;;4992164;28;20042;-74
2023/08/23 08:16:57;;;;;;;11.27;7.63;;;20.50;99.90;;;;;;5027304;28;20105;-75
2023/08/23 08:19:22;;;;;;;12.45;8.77;;;20.50;99.90;;;;;;4990296;28;20143;-76
2023/08/23 08:21:48;;;;;;;10.35;7.57;;;20.50;99.90;;;;;;5010668;28;20056;-75
2023/08/23 08:24:14;;;;;;;13.10;7.30;;;20.60;99.90;;;;;;4993790;28;20064;-76
2023/08/23 08:26:40;;;;;;;11.93;7.88;;;20.60;99.90;;;;;;4979247;28;20125;-74
2023/08/23 08:29:05;;;;;;;8.70;6.85;;;20.70;99.90;;;;;;5029865;28;20038;-74
2023/08/23 08:31:31;;;;;;;10.50;8.18;;;20.90;99.90;;;;;;5028033;28;20042;-74
2023/08/23 08:33:58;;;;;;;13.93;7.03;;;21.00;99.90;;;;;;5018602;28;20049;-75
2023/08/23 08:36:23;;;;;;;10.85;6.85;;;21.10;99.90;;;;;;5014742;28;20042;-79
2023/08/23 08:38:49;;;;;;;9.93;6.45;;;21.20;99.90;;;;;;4982535;28;20517;-75
2023/08/23 08:41:16;;;;;;;10.43;7.18;;;21.30;99.90;;;;;;5020016;28;20048;-75
2023/08/23 08:43:41;;;;;;;8.70;6.18;;;21.30;99.90;;;;;;4994060;28;20149;-75
2023/08/23 08:46:07;;;;;;;8.05;6.05;;;21.40;99.90;;;;;;4994656;28;20116;-76
2023/08/23 08:48:33;;;;;;;9.30;6.15;;;21.60;99.90;;;;;;5005249;28;20064;-78
2023/08/23 08:51:02;;;;;;;8.35;4.82;;;21.70;99.90;;;;;;5012845;28;20077;-75
2023/08/23 08:53:32;;;;;;;5.20;3.63;;;21.80;99.90;;;;;;5046824;28;20037;-78
2023/08/23 08:55:59;;;;;;;5.97;3.90;;;21.80;99.90;;;;;;4994258;28;20614;-78
2023/08/23 08:58:26;;;;;;;5.65;4.90;;;21.90;99.90;;;;;;5011112;28;20128;-79
2023/08/23 09:00:53;;;;;;;4.55;3.67;;;22.00;99.90;;;;;;5001269;28;20518;-78
2023/08/23 09:03:19;;;;;;;3.50;3.20;;;22.20;99.90;;;;;;5017797;28;20158;-77
2023/08/23 09:05:48;;;;;;;4.63;2.75;;;22.20;99.90;;;;;;5035209;28;20117;-77
2023/08/23 09:08:14;;;;;;;4.13;2.60;;;22.20;99.90;;;;;;5027934;28;20510;-75
2023/08/23 09:10:40;;;;;;;7.28;3.10;;;22.30;99.90;;;;;;4988706;28;20042;-76
2023/08/23 09:13:06;;;;;;;4.20;3.28;;;22.40;99.90;;;;;;5031717;28;20037;-73
2023/08/23 09:15:32;;;;;;;6.05;3.15;;;22.40;99.90;;;;;;5015192;28;20038;-72
2023/08/23 09:17:59;;;;;;;3.35;2.35;;;22.60;99.90;;;;;;5006752;28;20030;-73
2023/08/23 09:20:25;;;;;;;6.10;3.33;;;22.70;99.90;;;;;;4992039;28;20488;-73
2023/08/23 09:22:55;;;;;;;4.30;2.92;;;22.70;99.90;;;;;;5029596;28;20096;-73
2023/08/23 09:25:23;;;;;;;4.40;3.10;;;22.80;99.90;;;;;;5050220;28;20049;-74
2023/08/23 09:27:49;;;;;;;4.68;3.10;;;22.90;99.90;;;;;;5000856;28;20103;-74
2023/08/23 09:30:15;;;;;;;4.22;3.30;;;22.90;99.90;;;;;;4979253;28;20029;-73
2023/08/23 09:32:42;;;;;;;5.13;3.50;;;22.90;99.90;;;;;;5022210;28;20069;-74
2023/08/23 09:35:13;;;;;;;5.00;2.80;;;23.00;99.90;;;;;;5002018;28;20113;-73
2023/08/23 09:37:40;;;;;;;4.65;2.60;;;23.10;99.90;;;;;;5013653;28;20038;-73
2023/08/23 09:40:18;;;;;;;3.15;2.40;;;23.20;99.90;;;;;;5022221;28;20208;-72
2023/08/23 09:42:44;;;;;;;5.20;2.92;;;23.30;99.90;;;;;;5002457;28;20081;-73
2023/08/23 09:45:22;;;;;;;3.65;2.78;;;23.40;99.90;;;;;;5010432;28;20045;-73
2023/08/23 09:47:53;;;;;;;3.88;2.67;;;23.50;99.90;;;;;;5019575;28;20519;-71
2023/08/23 09:50:20;;;;;;;3.17;2.33;;;23.60;99.90;;;;;;5027546;28;21262;-69
2023/08/23 09:53:10;;;;;;;4.13;2.72;;;23.60;99.90;;;;;;5006899;28;20038;-71
2023/08/23 09:55:37;;;;;;;3.88;3.00;;;23.70;99.90;;;;;;5046757;28;20458;-77
2023/08/23 09:58:03;;;;;;;3.65;2.30;;;23.80;99.90;;;;;;5006307;28;20549;-73
2023/08/23 10:00:29;;;;;;;3.25;2.50;;;23.90;99.90;;;;;;5013489;28;20045;-75
2023/08/23 10:02:58;;;;;;;3.95;3.08;;;24.00;99.90;;;;;;5042944;28;20073;-77
2023/08/23 10:05:25;;;;;;;2.92;2.47;;;24.00;99.90;;;;;;5004926;28;20399;-76
2023/08/23 10:07:54;;;;;;;4.13;2.50;;;24.20;99.90;;;;;;5007918;28;20042;-75
2023/08/23 10:10:20;;;;;;;4.38;2.45;;;24.30;99.90;;;;;;5007320;28;20060;-75
2023/08/23 10:12:49;;;;;;;4.00;2.45;;;24.40;99.90;;;;;;5032787;28;20376;-75
2023/08/23 10:15:18;;;;;;;4.57;2.70;;;24.40;99.90;;;;;;5027104;28;20112;-75
2023/08/23 10:17:46;;;;;;;4.93;3.10;;;24.40;99.90;;;;;;5029550;28;20041;-75
2023/08/23 10:20:12;;;;;;;4.38;2.65;;;24.50;99.90;;;;;;5049500;28;20081;-76
2023/08/23 10:22:40;;;;;;;2.90;2.20;;;24.60;99.90;;;;;;5031593;28;20053;-75
2023/08/23 10:25:19;;;;;;;2.80;2.10;;;24.70;99.90;;;;;;4995211;28;20034;-75
2023/08/23 10:27:52;;;;;;;5.10;2.13;;;24.80;99.90;;;;;;5035029;28;20492;-76
2023/08/23 10:30:30;;;;;;;5.45;2.25;;;24.80;99.90;;;;;;5027382;28;20590;-80
2023/08/23 10:33:08;;;;;;;3.53;2.05;;;24.90;99.90;;;;;;4992092;28;20100;-81
2023/08/23 10:35:36;;;;;;;2.70;2.00;;;25.00;99.90;;;;;;5006765;28;20041;-82
2023/08/23 10:38:07;;;;;;;2.45;2.13;;;25.00;99.90;;;;;;5030439;28;20116;-77
2023/08/23 10:40:34;;;;;;;3.70;2.33;;;25.00;99.90;;;;;;4982365;28;20042;-79
2023/08/23 10:43:12;;;;;;;4.28;1.73;;;25.10;99.90;;;;;;4999434;28;20054;-78
2023/08/23 10:45:52;;;;;;;2.83;1.95;;;25.10;99.90;;;;;;5016770;28;20411;-78
2023/08/23 10:48:20;;;;;;;4.55;2.42;;;25.10;99.90;;;;;;5009450;28;20061;-79
2023/08/23 10:50:47;;;;;;;5.25;2.15;;;25.20;99.90;;;;;;4995063;28;20415;-76
2023/08/23 10:53:15;;;;;;;2.85;2.03;;;25.20;99.90;;;;;;5005235;28;20039;-76
2023/08/23 10:55:41;;;;;;;5.25;1.85;;;25.30;99.90;;;;;;5027635;28;20042;-75
2023/08/23 10:58:07;;;;;;;3.15;2.33;;;25.40;99.90;;;;;;5019547;28;20087;-75
2023/08/23 11:00:33;;;;;;;1.95;1.60;;;25.40;99.90;;;;;;5007840;28;20454;-77
2023/08/23 11:02:59;;;;;;;3.30;2.10;;;25.30;99.90;;;;;;5029512;28;20034;-81
2023/08/23 11:05:25;;;;;;;7.60;2.38;;;25.30;99.90;;;;;;5008707;28;20107;-79
2023/08/23 11:07:51;;;;;;;4.18;2.08;;;25.40;99.90;;;;;;4968749;28;20042;-81
2023/08/23 11:10:18;;;;;;;6.15;2.40;;;25.40;99.90;;;;;;5026800;28;20504;-80
2023/08/23 11:12:44;;;;;;;3.40;2.17;;;25.50;99.90;;;;;;5043967;28;20517;-79
2023/08/23 11:15:10;;;;;;;3.50;2.20;;;25.50;99.90;;;;;;5023658;28;20041;-74
2023/08/23 11:17:37;;;;;;;2.95;2.40;;;25.40;99.90;;;;;;4998930;28;20407;-75
2023/08/23 11:20:04;;;;;;;4.85;2.60;;;25.50;99.90;;;;;;4996183;28;20046;-74
2023/08/23 11:22:30;;;;;;;3.88;2.40;;;25.60;99.70;;;;;;4998930;28;20095;-75
2023/08/23 11:24:58;;;;;;;3.95;2.08;;;25.60;99.60;;;;;;5026935;28;20041;-77
2023/08/23 11:27:24;;;;;;;4.38;2.35;;;25.70;99.50;;;;;;5034835;28;20080;-76
2023/08/23 11:29:50;;;;;;;2.78;2.17;;;25.70;99.50;;;;;;4956818;28;20074;-76
2023/08/23 11:32:16;;;;;;;4.47;2.58;;;25.80;99.70;;;;;;5019818;28;20041;-76
2023/08/23 11:34:42;;;;;;;3.58;2.00;;;25.90;99.80;;;;;;4990226;28;20034;-75
2023/08/23 11:37:09;;;;;;;4.65;2.72;;;26.00;99.90;;;;;;5008862;28;20044;-76
2023/08/23 11:39:35;;;;;;;4.68;2.58;;;26.10;99.80;;;;;;5006621;28;20073;-76
2023/08/23 11:42:01;;;;;;;3.70;2.40;;;26.20;99.40;;;;;;5019841;28;20113;-75
2023/08/23 11:44:30;;;;;;;3.47;2.35;;;26.10;99.30;;;;;;5007755;28;20476;-75
2023/08/23 11:46:59;;;;;;;4.30;2.00;;;26.10;98.90;;;;;;5037937;28;20068;-75
2023/08/23 11:49:26;;;;;;;6.43;2.25;;;26.20;99.50;;;;;;5011158;28;20061;-76
2023/08/23 11:51:53;;;;;;;3.40;2.10;;;26.20;99.10;;;;;;4979870;28;20514;-75
2023/08/23 11:54:22;;;;;;;6.10;2.38;;;26.00;98.30;;;;;;5010700;28;20165;-75
2023/08/23 11:56:47;;;;;;;5.60;2.28;;;25.80;98.00;;;;;;4998510;28;20061;-74
2023/08/23 11:59:14;;;;;;;4.63;2.20;;;25.70;98.60;;;;;;5021846;28;20480;-75
2023/08/23 12:01:43;;;;;;;5.32;2.05;;;25.60;99.10;;;;;;4983324;28;20133;-75
2023/08/23 12:04:10;;;;;;;4.82;2.40;;;25.80;98.90;;;;;;5012374;28;20042;-75
2023/08/23 12:06:36;;;;;;;6.30;2.10;;;26.00;99.20;;;;;;5010615;28;20510;-75
2023/08/23 12:09:03;;;;;;;4.15;2.33;;;26.10;97.80;;;;;;5006047;28;20513;-75
2023/08/23 12:11:30;;;;;;;2.45;2.05;;;26.10;96.50;;;;;;5006257;28;20045;-73
2023/08/23 12:13:56;;;;;;;4.22;2.47;;;26.30;97.70;;;;;;5006946;28;20129;-75
2023/08/23 12:16:22;;;;;;;5.30;2.53;;;26.10;96.30;;;;;;4991250;28;20042;-73
2023/08/23 12:18:48;;;;;;;11.25;4.05;;;25.90;96.50;;;;;;5024520;28;20619;-75
2023/08/23 12:21:15;;;;;;;4.95;2.70;;;25.70;97.10;;;;;;4991273;28;20518;-74
2023/08/23 12:23:41;;;;;;;3.58;2.38;;;25.60;97.40;;;;;;4988787;28;20081;-75
2023/08/23 12:26:06;;;;;;;3.15;2.10;;;25.70;98.10;;;;;;5022377;28;20277;-76
2023/08/23 12:28:35;;;;;;;6.28;2.28;;;25.80;98.10;;;;;;5013732;28;20487;-75
2023/08/23 12:31:01;;;;;;;2.95;2.28;;;26.10;98.30;;;;;;4999220;28;20152;-75
2023/08/23 12:33:26;;;;;;;4.32;2.30;;;26.40;98.40;;;;;;4994052;28;21569;-75
2023/08/23 12:35:52;;;;;;;5.57;2.80;;;26.50;97.30;;;;;;5010294;28;20057;-86
2023/08/23 12:38:18;;;;;;;3.00;2.25;;;26.60;96.70;;;;;;4996775;28;20073;-83